sensor_id;sensor_type;location;lat;lon;timestamp;P1;durP1;ratioP1;P2;durP2;ratioP2
71091;SDS011;58751;50.708;7.134;2023-05-07T00:02:09;6.47;;;5.78;;
71091;SDS011;58751;50.708;7.134;2023-05-07T00:04:34;5.73;;;5.23;;
71091;SDS011;58751;50.708;7.134;2023-05-07T00:06:59;5.50;;;5.00;;
71091;SDS011;58751;50.708;7.134;2023-05-07T00:09:25;4.83;;;4.47;;
71091;SDS011;58751;50.708;7.134;2023-05-07T00:11:50;5.00;;;4.60;;
71091;SDS011;58751;50.708;7.134;2023-05-07T00:14:15;5.83;;;5.30;;
71091;SDS011;58751;50.708;7.134;2023-05-07T00:16:42;5.63;;;5.13;;
71091;SDS011;58751;50.708;7.134;2023-05-07T00:19:07;5.60;;;5.10;;
71091;SDS011;58751;50.708;7.134;2023-05-07T00:21:32;5.33;;;4.90;;
71091;SDS011;58751;50.708;7.134;2023-05-07T00:23:57;5.27;;;4.77;;
71091;SDS011;58751;50.708;7.134;2023-05-07T00:26:23;4.57;;;4.17;;
71091;SDS011;58751;50.708;7.134;2023-05-07T00:28:48;5.67;;;4.87;;
71091;SDS011;58751;50.708;7.134;2023-05-07T00:31:13;6.03;;;5.43;;
71091;SDS011;58751;50.708;7.134;2023-05-07T00:33:40;6.10;;;5.63;;
71091;SDS011;58751;50.708;7.134;2023-05-07T00:36:05;6.47;;;5.70;;
71091;SDS011;58751;50.708;7.134;2023-05-07T00:38:30;6.40;;;5.80;;
71091;SDS011;58751;50.708;7.134;2023-05-07T00:40:55;6.77;;;6.20;;
71091;SDS011;58751;50.708;7.134;2023-05-07T00:43:21;6.13;;;5.57;;
71091;SDS011;58751;50.708;7.134;2023-05-07T00:45:46;5.23;;;4.73;;
71091;SDS011;58751;50.708;7.134;2023-05-07T00:48:11;6.10;;;5.50;;
71091;SDS011;58751;50.708;7.134;2023-05-07T00:50:38;10.57;;;6.07;;
71091;SDS011;58751;50.708;7.134;2023-05-07T00:53:04;6.25;;;5.75;;
71091;SDS011;58751;50.708;7.134;2023-05-07T00:55:29;6.40;;;5.80;;
71091;SDS011;58751;50.708;7.134;2023-05-07T00:57:54;9.43;;;5.50;;
71091;SDS011;58751;50.708;7.134;2023-05-07T01:00:19;6.60;;;6.00;;
71091;SDS011;58751;50.708;7.134;2023-05-07T01:02:44;6.27;;;5.77;;
71091;SDS011;58751;50.708;7.134;2023-05-07T01:05:10;7.27;;;6.57;;
71091;SDS011;58751;50.708;7.134;2023-05-07T01:07:37;5.97;;;5.47;;
71091;SDS011;58751;50.708;7.134;2023-05-07T01:10:03;5.72;;;5.32;;
71091;SDS011;58751;50.708;7.134;2023-05-07T01:12:29;6.30;;;5.70;;
71091;SDS011;58751;50.708;7.134;2023-05-07T01:14:55;7.20;;;5.83;;
71091;SDS011;58751;50.708;7.134;2023-05-07T01:17:20;6.93;;;6.23;;
71091;SDS011;58751;50.708;7.134;2023-05-07T01:19:45;6.17;;;5.57;;
71091;SDS011;58751;50.708;7.134;2023-05-07T01:22:11;12.33;;;7.23;;
71091;SDS011;58751;50.708;7.134;2023-05-07T01:24:37;7.80;;;7.03;;
71091;SDS011;58751;50.708;7.134;2023-05-07T01:27:03;8.00;;;6.00;;
71091;SDS011;58751;50.708;7.134;2023-05-07T01:29:28;6.70;;;6.10;;
71091;SDS011;58751;50.708;7.134;2023-05-07T01:31:53;6.50;;;5.70;;
71091;SDS011;58751;50.708;7.134;2023-05-07T01:34:19;7.57;;;6.80;;
71091;SDS011;58751;50.708;7.134;2023-05-07T01:36:46;6.82;;;5.90;;
71091;SDS011;58751;50.708;7.134;2023-05-07T01:39:12;7.67;;;6.30;;
71091;SDS011;58751;50.708;7.134;2023-05-07T01:41:39;6.07;;;5.53;;
71091;SDS011;58751;50.708;7.134;2023-05-07T01:44:04;6.85;;;6.13;;
71091;SDS011;58751;50.708;7.134;2023-05-07T01:46:30;6.78;;;6.18;;
71091;SDS011;58751;50.708;7.134;2023-05-07T01:48:56;6.70;;;6.03;;
71091;SDS011;58751;50.708;7.134;2023-05-07T01:51:21;5.80;;;5.23;;
71091;SDS011;58751;50.708;7.134;2023-05-07T01:53:46;6.40;;;5.80;;
71091;SDS011;58751;50.708;7.134;2023-05-07T01:56:12;5.30;;;4.90;;
71091;SDS011;58751;50.708;7.134;2023-05-07T01:58:38;6.77;;;5.33;;
71091;SDS011;58751;50.708;7.134;2023-05-07T02:01:03;6.15;;;5.25;;
71091;SDS011;58751;50.708;7.134;2023-05-07T02:03:29;6.83;;;5.90;;
71091;SDS011;58751;50.708;7.134;2023-05-07T02:05:54;7.10;;;6.50;;
71091;SDS011;58751;50.708;7.134;2023-05-07T02:08:19;7.20;;;5.80;;
71091;SDS011;58751;50.708;7.134;2023-05-07T02:10:44;8.27;;;7.40;;
71091;SDS011;58751;50.708;7.134;2023-05-07T02:13:10;7.57;;;6.87;;
71091;SDS011;58751;50.708;7.134;2023-05-07T02:15:36;6.53;;;5.80;;
71091;SDS011;58751;50.708;7.134;2023-05-07T02:18:02;7.30;;;6.60;;
71091;SDS011;58751;50.708;7.134;2023-05-07T02:20:28;6.90;;;6.20;;
71091;SDS011;58751;50.708;7.134;2023-05-07T02:22:53;8.03;;;7.33;;
71091;SDS011;58751;50.708;7.134;2023-05-07T02:25:18;7.77;;;7.10;;
71091;SDS011;58751;50.708;7.134;2023-05-07T02:27:43;7.93;;;7.23;;
71091;SDS011;58751;50.708;7.134;2023-05-07T02:30:09;10.03;;;7.60;;
71091;SDS011;58751;50.708;7.134;2023-05-07T02:32:36;9.90;;;8.07;;
71091;SDS011;58751;50.708;7.134;2023-05-07T02:35:01;9.35;;;7.80;;
71091;SDS011;58751;50.708;7.134;2023-05-07T02:37:26;8.50;;;7.53;;
71091;SDS011;58751;50.708;7.134;2023-05-07T02:39:51;8.33;;;7.47;;
71091;SDS011;58751;50.708;7.134;2023-05-07T02:42:16;6.97;;;6.30;;
71091;SDS011;58751;50.708;7.134;2023-05-07T02:44:42;10.27;;;7.20;;
71091;SDS011;58751;50.708;7.134;2023-05-07T02:47:07;8.23;;;7.40;;
71091;SDS011;58751;50.708;7.134;2023-05-07T02:49:33;9.50;;;8.43;;
71091;SDS011;58751;50.708;7.134;2023-05-07T02:51:59;8.50;;;7.60;;
71091;SDS011;58751;50.708;7.134;2023-05-07T02:54:24;8.20;;;7.40;;
71091;SDS011;58751;50.708;7.134;2023-05-07T02:56:49;7.97;;;7.27;;
71091;SDS011;58751;50.708;7.134;2023-05-07T02:59:14;8.80;;;7.90;;
71091;SDS011;58751;50.708;7.134;2023-05-07T03:01:39;10.23;;;9.23;;
71091;SDS011;58751;50.708;7.134;2023-05-07T03:04:05;8.73;;;7.87;;
71091;SDS011;58751;50.708;7.134;2023-05-07T03:06:31;9.63;;;8.63;;
71091;SDS011;58751;50.708;7.134;2023-05-07T03:08:57;8.35;;;7.50;;
71091;SDS011;58751;50.708;7.134;2023-05-07T03:11:22;8.90;;;8.00;;
71091;SDS011;58751;50.708;7.134;2023-05-07T03:13:47;8.30;;;7.50;;
71091;SDS011;58751;50.708;7.134;2023-05-07T03:16:12;12.80;;;9.10;;
71091;SDS011;58751;50.708;7.134;2023-05-07T03:18:37;8.53;;;7.73;;
71091;SDS011;58751;50.708;7.134;2023-05-07T03:21:03;9.07;;;8.27;;
71091;SDS011;58751;50.708;7.134;2023-05-07T03:23:29;8.53;;;7.73;;
71091;SDS011;58751;50.708;7.134;2023-05-07T03:25:54;7.35;;;6.65;;
71091;SDS011;58751;50.708;7.134;2023-05-07T03:28:20;7.87;;;7.20;;
71091;SDS011;58751;50.708;7.134;2023-05-07T03:30:45;8.30;;;7.50;;
71091;SDS011;58751;50.708;7.134;2023-05-07T03:33:10;7.33;;;6.73;;
71091;SDS011;58751;50.708;7.134;2023-05-07T03:35:35;7.60;;;6.13;;
71091;SDS011;58751;50.708;7.134;2023-05-07T03:38:00;7.87;;;5.83;;
71091;SDS011;58751;50.708;7.134;2023-05-07T03:40:27;8.10;;;7.10;;
71091;SDS011;58751;50.708;7.134;2023-05-07T03:42:52;6.60;;;6.00;;
71091;SDS011;58751;50.708;7.134;2023-05-07T03:45:18;7.33;;;6.63;;
71091;SDS011;58751;50.708;7.134;2023-05-07T03:47:43;6.17;;;5.70;;
71091;SDS011;58751;50.708;7.134;2023-05-07T03:50:09;9.73;;;8.80;;
71091;SDS011;58751;50.708;7.134;2023-05-07T03:52:34;10.80;;;7.60;;
71091;SDS011;58751;50.708;7.134;2023-05-07T03:55:00;7.83;;;7.13;;
71091;SDS011;58751;50.708;7.134;2023-05-07T03:57:26;8.80;;;7.80;;
71091;SDS011;58751;50.708;7.134;2023-05-07T03:59:51;9.07;;;7.63;;
71091;SDS011;58751;50.708;7.134;2023-05-07T04:02:17;10.37;;;9.20;;
71091;SDS011;58751;50.708;7.134;2023-05-07T04:04:42;9.20;;;7.50;;
71091;SDS011;58751;50.708;7.134;2023-05-07T04:07:07;8.40;;;7.60;;
71091;SDS011;58751;50.708;7.134;2023-05-07T04:09:32;7.70;;;6.90;;
71091;SDS011;58751;50.708;7.134;2023-05-07T04:11:58;6.77;;;6.27;;
71091;SDS011;58751;50.708;7.134;2023-05-07T04:14:24;8.70;;;7.10;;
71091;SDS011;58751;50.708;7.134;2023-05-07T04:16:49;8.98;;;8.00;;
71091;SDS011;58751;50.708;7.134;2023-05-07T04:19:15;7.67;;;6.97;;
71091;SDS011;58751;50.708;7.134;2023-05-07T04:21:40;8.30;;;7.50;;
71091;SDS011;58751;50.708;7.134;2023-05-07T04:24:05;8.10;;;6.70;;
71091;SDS011;58751;50.708;7.134;2023-05-07T04:26:30;8.07;;;6.57;;
71091;SDS011;58751;50.708;7.134;2023-05-07T04:28:56;6.90;;;6.20;;
71091;SDS011;58751;50.708;7.134;2023-05-07T04:31:22;7.53;;;6.80;;
71091;SDS011;58751;50.708;7.134;2023-05-07T04:33:47;6.68;;;6.10;;
71091;SDS011;58751;50.708;7.134;2023-05-07T04:36:13;9.53;;;7.70;;
71091;SDS011;58751;50.708;7.134;2023-05-07T04:38:38;9.40;;;8.50;;
71091;SDS011;58751;50.708;7.134;2023-05-07T04:41:04;9.37;;;8.47;;
71091;SDS011;58751;50.708;7.134;2023-05-07T04:43:29;8.47;;;7.57;;
71091;SDS011;58751;50.708;7.134;2023-05-07T04:45:55;9.23;;;8.00;;
71091;SDS011;58751;50.708;7.134;2023-05-07T04:48:21;9.10;;;8.30;;
71091;SDS011;58751;50.708;7.134;2023-05-07T04:50:47;8.85;;;7.80;;
71091;SDS011;58751;50.708;7.134;2023-05-07T04:53:12;9.30;;;8.40;;
71091;SDS011;58751;50.708;7.134;2023-05-07T04:55:37;7.97;;;7.20;;
71091;SDS011;58751;50.708;7.134;2023-05-07T04:58:02;7.77;;;7.07;;
71091;SDS011;58751;50.708;7.134;2023-05-07T05:00:28;7.07;;;6.17;;
71091;SDS011;58751;50.708;7.134;2023-05-07T05:02:53;7.33;;;6.63;;
71091;SDS011;58751;50.708;7.134;2023-05-07T05:05:20;8.60;;;7.07;;
71091;SDS011;58751;50.708;7.134;2023-05-07T05:07:45;7.03;;;6.53;;
71091;SDS011;58751;50.708;7.134;2023-05-07T05:10:10;7.53;;;6.90;;
71091;SDS011;58751;50.708;7.134;2023-05-07T05:12:35;7.90;;;7.10;;
71091;SDS011;58751;50.708;7.134;2023-05-07T05:15:02;7.20;;;6.37;;
71091;SDS011;58751;50.708;7.134;2023-05-07T05:17:27;6.73;;;6.13;;
71091;SDS011;58751;50.708;7.134;2023-05-07T05:19:52;7.70;;;6.90;;
71091;SDS011;58751;50.708;7.134;2023-05-07T05:22:19;7.80;;;7.10;;
71091;SDS011;58751;50.708;7.134;2023-05-07T05:24:44;7.07;;;6.37;;
71091;SDS011;58751;50.708;7.134;2023-05-07T05:27:09;6.03;;;5.47;;
71091;SDS011;58751;50.708;7.134;2023-05-07T05:29:34;6.17;;;5.67;;
71091;SDS011;58751;50.708;7.134;2023-05-07T05:32:00;6.27;;;5.67;;
71091;SDS011;58751;50.708;7.134;2023-05-07T05:34:25;6.63;;;5.97;;
71091;SDS011;58751;50.708;7.134;2023-05-07T05:36:50;5.80;;;5.30;;
71091;SDS011;58751;50.708;7.134;2023-05-07T05:39:17;6.20;;;5.60;;
71091;SDS011;58751;50.708;7.134;2023-05-07T05:41:42;6.70;;;6.00;;
71091;SDS011;58751;50.708;7.134;2023-05-07T05:44:07;7.90;;;5.23;;
71091;SDS011;58751;50.708;7.134;2023-05-07T05:46:32;8.33;;;6.03;;
71091;SDS011;58751;50.708;7.134;2023-05-07T05:48:58;5.83;;;5.33;;
71091;SDS011;58751;50.708;7.134;2023-05-07T05:51:23;6.63;;;6.03;;
71091;SDS011;58751;50.708;7.134;2023-05-07T05:53:48;11.10;;;6.10;;
71091;SDS011;58751;50.708;7.134;2023-05-07T05:56:14;5.77;;;5.27;;
71091;SDS011;58751;50.708;7.134;2023-05-07T05:58:40;5.27;;;4.77;;
71091;SDS011;58751;50.708;7.134;2023-05-07T06:01:05;5.27;;;4.77;;
71091;SDS011;58751;50.708;7.134;2023-05-07T06:03:30;6.30;;;5.27;;
71091;SDS011;58751;50.708;7.134;2023-05-07T06:05:55;4.60;;;4.00;;
71091;SDS011;58751;50.708;7.134;2023-05-07T06:08:21;4.97;;;4.47;;
71091;SDS011;58751;50.708;7.134;2023-05-07T06:10:46;4.20;;;3.90;;
71091;SDS011;58751;50.708;7.134;2023-05-07T06:13:12;4.33;;;3.80;;
71091;SDS011;58751;50.708;7.134;2023-05-07T06:15:38;4.20;;;3.80;;
71091;SDS011;58751;50.708;7.134;2023-05-07T06:18:03;5.53;;;4.80;;
71091;SDS011;58751;50.708;7.134;2023-05-07T06:20:28;5.90;;;5.30;;
71091;SDS011;58751;50.708;7.134;2023-05-07T06:22:53;4.27;;;3.97;;
71091;SDS011;58751;50.708;7.134;2023-05-07T06:25:19;4.87;;;4.43;;
71091;SDS011;58751;50.708;7.134;2023-05-07T06:27:44;4.13;;;3.83;;
71091;SDS011;58751;50.708;7.134;2023-05-07T06:30:11;4.40;;;4.00;;
71091;SDS011;58751;50.708;7.134;2023-05-07T06:32:36;4.90;;;3.77;;
71091;SDS011;58751;50.708;7.134;2023-05-07T06:35:02;4.30;;;4.00;;
71091;SDS011;58751;50.708;7.134;2023-05-07T06:37:27;4.97;;;4.10;;
71091;SDS011;58751;50.708;7.134;2023-05-07T06:39:52;4.37;;;4.00;;
71091;SDS011;58751;50.708;7.134;2023-05-07T06:42:17;5.00;;;3.80;;
71091;SDS011;58751;50.708;7.134;2023-05-07T06:44:42;3.57;;;3.27;;
71091;SDS011;58751;50.708;7.134;2023-05-07T06:47:09;3.10;;;2.90;;
71091;SDS011;58751;50.708;7.134;2023-05-07T06:49:34;2.97;;;2.77;;
71091;SDS011;58751;50.708;7.134;2023-05-07T06:51:59;4.50;;;3.23;;
71091;SDS011;58751;50.708;7.134;2023-05-07T06:54:25;3.63;;;3.40;;
71091;SDS011;58751;50.708;7.134;2023-05-07T06:56:50;3.30;;;3.03;;
71091;SDS011;58751;50.708;7.134;2023-05-07T06:59:15;3.43;;;3.23;;
71091;SDS011;58751;50.708;7.134;2023-05-07T07:01:40;5.60;;;3.53;;
71091;SDS011;58751;50.708;7.134;2023-05-07T07:04:07;4.33;;;3.87;;
71091;SDS011;58751;50.708;7.134;2023-05-07T07:06:32;3.13;;;2.83;;
71091;SDS011;58751;50.708;7.134;2023-05-07T07:08:58;2.63;;;2.43;;
71091;SDS011;58751;50.708;7.134;2023-05-07T07:11:23;3.60;;;3.30;;
71091;SDS011;58751;50.708;7.134;2023-05-07T07:13:48;3.67;;;2.43;;
71091;SDS011;58751;50.708;7.134;2023-05-07T07:16:13;3.17;;;2.87;;
71091;SDS011;58751;50.708;7.134;2023-05-07T07:18:39;3.40;;;3.10;;
71091;SDS011;58751;50.708;7.134;2023-05-07T07:21:05;5.50;;;3.90;;
71091;SDS011;58751;50.708;7.134;2023-05-07T07:23:30;3.63;;;2.80;;
71091;SDS011;58751;50.708;7.134;2023-05-07T07:25:56;3.30;;;3.00;;
71091;SDS011;58751;50.708;7.134;2023-05-07T07:28:21;5.23;;;3.20;;
71091;SDS011;58751;50.708;7.134;2023-05-07T07:30:46;2.70;;;2.50;;
71091;SDS011;58751;50.708;7.134;2023-05-07T07:33:14;3.53;;;2.70;;
71091;SDS011;58751;50.708;7.134;2023-05-07T07:35:39;3.00;;;2.80;;
71091;SDS011;58751;50.708;7.134;2023-05-07T07:38:06;2.80;;;2.60;;
71091;SDS011;58751;50.708;7.134;2023-05-07T07:40:31;2.90;;;2.70;;
71091;SDS011;58751;50.708;7.134;2023-05-07T07:42:56;3.97;;;2.73;;
71091;SDS011;58751;50.708;7.134;2023-05-07T07:45:22;2.60;;;2.43;;
71091;SDS011;58751;50.708;7.134;2023-05-07T07:47:47;4.73;;;2.63;;
71091;SDS011;58751;50.708;7.134;2023-05-07T07:50:12;3.30;;;3.10;;
71091;SDS011;58751;50.708;7.134;2023-05-07T07:52:37;2.33;;;2.13;;
71091;SDS011;58751;50.708;7.134;2023-05-07T07:55:04;3.13;;;2.73;;
71091;SDS011;58751;50.708;7.134;2023-05-07T07:57:30;2.87;;;2.67;;
71091;SDS011;58751;50.708;7.134;2023-05-07T07:59:55;3.07;;;2.77;;
71091;SDS011;58751;50.708;7.134;2023-05-07T08:02:20;2.60;;;2.40;;
71091;SDS011;58751;50.708;7.134;2023-05-07T08:04:46;2.50;;;2.30;;
71091;SDS011;58751;50.708;7.134;2023-05-07T08:07:11;4.83;;;2.53;;
71091;SDS011;58751;50.708;7.134;2023-05-07T08:09:36;3.63;;;3.07;;
71091;SDS011;58751;50.708;7.134;2023-05-07T08:12:03;2.50;;;2.40;;
71091;SDS011;58751;50.708;7.134;2023-05-07T08:14:29;2.67;;;2.47;;
71091;SDS011;58751;50.708;7.134;2023-05-07T08:16:54;4.50;;;2.50;;
71091;SDS011;58751;50.708;7.134;2023-05-07T08:19:19;2.00;;;1.90;;
71091;SDS011;58751;50.708;7.134;2023-05-07T08:21:45;2.73;;;1.83;;
71091;SDS011;58751;50.708;7.134;2023-05-07T08:24:10;2.00;;;1.80;;
71091;SDS011;58751;50.708;7.134;2023-05-07T08:26:35;1.87;;;1.60;;
71091;SDS011;58751;50.708;7.134;2023-05-07T08:29:02;1.80;;;1.70;;
71091;SDS011;58751;50.708;7.134;2023-05-07T08:31:27;1.83;;;1.73;;
71091;SDS011;58751;50.708;7.134;2023-05-07T08:33:52;2.20;;;2.07;;
71091;SDS011;58751;50.708;7.134;2023-05-07T08:36:17;1.77;;;1.67;;
71091;SDS011;58751;50.708;7.134;2023-05-07T08:38:43;2.53;;;1.87;;
71091;SDS011;58751;50.708;7.134;2023-05-07T08:41:09;1.90;;;1.70;;
71091;SDS011;58751;50.708;7.134;2023-05-07T08:43:34;2.67;;;2.47;;
71091;SDS011;58751;50.708;7.134;2023-05-07T08:46:02;1.87;;;1.77;;
71091;SDS011;58751;50.708;7.134;2023-05-07T08:48:29;3.10;;;2.20;;
71091;SDS011;58751;50.708;7.134;2023-05-07T08:50:54;2.40;;;1.97;;
71091;SDS011;58751;50.708;7.134;2023-05-07T08:53:19;4.00;;;1.87;;
71091;SDS011;58751;50.708;7.134;2023-05-07T08:55:45;1.83;;;1.63;;
71091;SDS011;58751;50.708;7.134;2023-05-07T08:58:10;2.00;;;1.90;;
71091;SDS011;58751;50.708;7.134;2023-05-07T09:00:36;2.20;;;2.00;;
71091;SDS011;58751;50.708;7.134;2023-05-07T09:03:02;1.63;;;1.53;;
71091;SDS011;58751;50.708;7.134;2023-05-07T09:05:28;2.60;;;1.83;;
71091;SDS011;58751;50.708;7.134;2023-05-07T09:07:53;2.03;;;1.93;;
71091;SDS011;58751;50.708;7.134;2023-05-07T09:10:18;1.47;;;1.37;;
71091;SDS011;58751;50.708;7.134;2023-05-07T09:12:43;3.20;;;2.30;;
71091;SDS011;58751;50.708;7.134;2023-05-07T09:15:11;1.70;;;1.60;;
71091;SDS011;58751;50.708;7.134;2023-05-07T09:17:36;2.50;;;2.10;;
71091;SDS011;58751;50.708;7.134;2023-05-07T09:20:03;2.87;;;1.93;;
71091;SDS011;58751;50.708;7.134;2023-05-07T09:22:31;1.90;;;1.80;;
71091;SDS011;58751;50.708;7.134;2023-05-07T09:24:56;2.07;;;1.70;;
71091;SDS011;58751;50.708;7.134;2023-05-07T09:27:21;3.27;;;2.03;;
71091;SDS011;58751;50.708;7.134;2023-05-07T09:29:46;1.77;;;1.67;;
71091;SDS011;58751;50.708;7.134;2023-05-07T09:32:11;2.17;;;1.90;;
71091;SDS011;58751;50.708;7.134;2023-05-07T09:34:37;1.83;;;1.73;;
71091;SDS011;58751;50.708;7.134;2023-05-07T09:37:03;1.83;;;1.73;;
71091;SDS011;58751;50.708;7.134;2023-05-07T09:39:38;2.27;;;1.90;;
71091;SDS011;58751;50.708;7.134;2023-05-07T09:42:03;1.70;;;1.60;;
71091;SDS011;58751;50.708;7.134;2023-05-07T09:44:28;2.27;;;1.90;;
71091;SDS011;58751;50.708;7.134;2023-05-07T09:46:54;2.63;;;1.90;;
71091;SDS011;58751;50.708;7.134;2023-05-07T09:49:21;2.00;;;1.80;;
71091;SDS011;58751;50.708;7.134;2023-05-07T09:51:47;2.50;;;2.00;;
71091;SDS011;58751;50.708;7.134;2023-05-07T09:54:14;1.73;;;1.63;;
71091;SDS011;58751;50.708;7.134;2023-05-07T09:56:40;2.17;;;1.97;;
71091;SDS011;58751;50.708;7.134;2023-05-07T09:59:05;1.40;;;1.30;;
71091;SDS011;58751;50.708;7.134;2023-05-07T10:01:31;1.87;;;1.67;;
71091;SDS011;58751;50.708;7.134;2023-05-07T10:03:56;2.57;;;1.90;;
71091;SDS011;58751;50.708;7.134;2023-05-07T10:06:23;1.80;;;1.50;;
71091;SDS011;58751;50.708;7.134;2023-05-07T10:08:49;1.83;;;1.70;;
71091;SDS011;58751;50.708;7.134;2023-05-07T10:11:16;2.30;;;2.10;;
71091;SDS011;58751;50.708;7.134;2023-05-07T10:13:42;2.00;;;1.90;;
71091;SDS011;58751;50.708;7.134;2023-05-07T10:16:08;2.13;;;1.80;;
71091;SDS011;58751;50.708;7.134;2023-05-07T10:18:33;2.20;;;2.00;;
71091;SDS011;58751;50.708;7.134;2023-05-07T10:21:00;2.73;;;1.60;;
71091;SDS011;58751;50.708;7.134;2023-05-07T10:23:26;1.90;;;1.60;;
71091;SDS011;58751;50.708;7.134;2023-05-07T10:25:52;1.37;;;1.27;;
71091;SDS011;58751;50.708;7.134;2023-05-07T10:28:19;2.00;;;1.80;;
71091;SDS011;58751;50.708;7.134;2023-05-07T10:30:48;2.00;;;1.90;;
71091;SDS011;58751;50.708;7.134;2023-05-07T10:33:16;2.10;;;1.33;;
71091;SDS011;58751;50.708;7.134;2023-05-07T10:35:45;1.20;;;1.10;;
71091;SDS011;58751;50.708;7.134;2023-05-07T10:38:10;1.60;;;1.50;;
71091;SDS011;58751;50.708;7.134;2023-05-07T10:40:35;1.83;;;1.73;;
71091;SDS011;58751;50.708;7.134;2023-05-07T10:43:01;2.77;;;1.77;;
71091;SDS011;58751;50.708;7.134;2023-05-07T10:45:28;3.00;;;2.27;;
71091;SDS011;58751;50.708;7.134;2023-05-07T10:48:06;2.00;;;1.53;;
71091;SDS011;58751;50.708;7.134;2023-05-07T10:50:31;1.57;;;1.47;;
71091;SDS011;58751;50.708;7.134;2023-05-07T10:55:40;1.83;;;1.73;;
71091;SDS011;58751;50.708;7.134;2023-05-07T10:58:24;2.20;;;2.00;;
71091;SDS011;58751;50.708;7.134;2023-05-07T11:00:55;1.73;;;1.63;;
71091;SDS011;58751;50.708;7.134;2023-05-07T11:03:20;1.60;;;1.50;;
71091;SDS011;58751;50.708;7.134;2023-05-07T11:05:46;1.50;;;1.37;;
71091;SDS011;58751;50.708;7.134;2023-05-07T11:08:11;2.00;;;1.90;;
71091;SDS011;58751;50.708;7.134;2023-05-07T11:10:52;2.90;;;1.50;;
71091;SDS011;58751;50.708;7.134;2023-05-07T11:13:18;2.17;;;1.63;;
71091;SDS011;58751;50.708;7.134;2023-05-07T11:15:44;1.83;;;1.60;;
71091;SDS011;58751;50.708;7.134;2023-05-07T11:18:11;2.00;;;1.90;;
71091;SDS011;58751;50.708;7.134;2023-05-07T11:20:46;2.00;;;1.80;;
71091;SDS011;58751;50.708;7.134;2023-05-07T11:25:57;1.60;;;1.30;;
71091;SDS011;58751;50.708;7.134;2023-05-07T11:28:23;1.40;;;1.30;;
71091;SDS011;58751;50.708;7.134;2023-05-07T11:30:48;1.70;;;1.60;;
71091;SDS011;58751;50.708;7.134;2023-05-07T11:33:15;2.20;;;1.60;;
71091;SDS011;58751;50.708;7.134;2023-05-07T11:35:41;1.60;;;1.50;;
71091;SDS011;58751;50.708;7.134;2023-05-07T11:38:07;2.50;;;1.53;;
71091;SDS011;58751;50.708;7.134;2023-05-07T11:40:32;1.80;;;1.70;;
71091;SDS011;58751;50.708;7.134;2023-05-07T11:42:57;1.73;;;1.63;;
71091;SDS011;58751;50.708;7.134;2023-05-07T11:45:23;2.97;;;1.47;;
71091;SDS011;58751;50.708;7.134;2023-05-07T11:47:49;1.50;;;1.40;;
71091;SDS011;58751;50.708;7.134;2023-05-07T11:50:15;3.17;;;1.37;;
71091;SDS011;58751;50.708;7.134;2023-05-07T11:52:49;2.80;;;1.30;;
71091;SDS011;58751;50.708;7.134;2023-05-07T11:55:14;1.77;;;1.63;;
71091;SDS011;58751;50.708;7.134;2023-05-07T11:57:42;1.53;;;1.40;;
71091;SDS011;58751;50.708;7.134;2023-05-07T12:00:08;1.80;;;1.70;;
71091;SDS011;58751;50.708;7.134;2023-05-07T12:02:34;2.87;;;1.50;;
71091;SDS011;58751;50.708;7.134;2023-05-07T12:05:00;2.00;;;1.37;;
71091;SDS011;58751;50.708;7.134;2023-05-07T12:07:26;1.40;;;1.30;;
71091;SDS011;58751;50.708;7.134;2023-05-07T12:09:51;1.63;;;1.53;;
71091;SDS011;58751;50.708;7.134;2023-05-07T12:12:17;1.60;;;1.50;;
71091;SDS011;58751;50.708;7.134;2023-05-07T12:14:42;2.60;;;1.40;;
71091;SDS011;58751;50.708;7.134;2023-05-07T12:17:08;1.70;;;1.60;;
71091;SDS011;58751;50.708;7.134;2023-05-07T12:19:34;1.57;;;1.47;;
71091;SDS011;58751;50.708;7.134;2023-05-07T12:21:59;1.90;;;1.80;;
71091;SDS011;58751;50.708;7.134;2023-05-07T12:24:26;1.67;;;1.57;;
71091;SDS011;58751;50.708;7.134;2023-05-07T12:26:51;2.30;;;2.00;;
71091;SDS011;58751;50.708;7.134;2023-05-07T12:29:16;2.33;;;1.57;;
71091;SDS011;58751;50.708;7.134;2023-05-07T12:31:41;1.70;;;1.40;;
71091;SDS011;58751;50.708;7.134;2023-05-07T12:34:07;3.33;;;1.80;;
71091;SDS011;58751;50.708;7.134;2023-05-07T12:36:38;2.40;;;1.97;;
71091;SDS011;58751;50.708;7.134;2023-05-07T12:39:04;1.57;;;1.43;;
71091;SDS011;58751;50.708;7.134;2023-05-07T12:41:30;2.03;;;1.80;;
71091;SDS011;58751;50.708;7.134;2023-05-07T12:43:56;1.70;;;1.60;;
71091;SDS011;58751;50.708;7.134;2023-05-07T12:46:21;1.73;;;1.63;;
71091;SDS011;58751;50.708;7.134;2023-05-07T12:48:46;1.60;;;1.50;;
71091;SDS011;58751;50.708;7.134;2023-05-07T12:51:11;1.83;;;1.73;;
71091;SDS011;58751;50.708;7.134;2023-05-07T12:53:39;1.67;;;1.57;;
71091;SDS011;58751;50.708;7.134;2023-05-07T12:56:05;1.83;;;1.30;;
71091;SDS011;58751;50.708;7.134;2023-05-07T12:58:33;1.33;;;1.23;;
71091;SDS011;58751;50.708;7.134;2023-05-07T13:00:59;2.50;;;1.50;;
71091;SDS011;58751;50.708;7.134;2023-05-07T13:03:25;2.43;;;2.23;;
71091;SDS011;58751;50.708;7.134;2023-05-07T13:05:51;2.40;;;1.60;;
71091;SDS011;58751;50.708;7.134;2023-05-07T13:08:29;1.87;;;1.40;;
71091;SDS011;58751;50.708;7.134;2023-05-07T13:10:55;1.70;;;1.47;;
71091;SDS011;58751;50.708;7.134;2023-05-07T13:13:20;4.40;;;2.33;;
71091;SDS011;58751;50.708;7.134;2023-05-07T13:15:47;1.60;;;1.50;;
71091;SDS011;58751;50.708;7.134;2023-05-07T13:18:12;1.40;;;1.30;;
71091;SDS011;58751;50.708;7.134;2023-05-07T13:20:37;1.87;;;1.70;;
71091;SDS011;58751;50.708;7.134;2023-05-07T13:23:03;2.97;;;2.30;;
71091;SDS011;58751;50.708;7.134;2023-05-07T13:25:28;1.70;;;1.60;;
71091;SDS011;58751;50.708;7.134;2023-05-07T13:27:53;3.00;;;2.77;;
71091;SDS011;58751;50.708;7.134;2023-05-07T13:30:18;2.57;;;2.37;;
71091;SDS011;58751;50.708;7.134;2023-05-07T13:32:45;1.70;;;1.60;;
71091;SDS011;58751;50.708;7.134;2023-05-07T13:35:10;1.70;;;1.60;;
71091;SDS011;58751;50.708;7.134;2023-05-07T13:37:35;1.50;;;1.40;;
71091;SDS011;58751;50.708;7.134;2023-05-07T13:40:01;3.30;;;1.57;;
71091;SDS011;58751;50.708;7.134;2023-05-07T13:42:26;1.40;;;1.30;;
71091;SDS011;58751;50.708;7.134;2023-05-07T13:44:51;2.13;;;1.93;;
71091;SDS011;58751;50.708;7.134;2023-05-07T13:47:16;2.63;;;2.17;;
71091;SDS011;58751;50.708;7.134;2023-05-07T13:49:43;2.33;;;1.60;;
71091;SDS011;58751;50.708;7.134;2023-05-07T13:52:08;2.20;;;1.33;;
71091;SDS011;58751;50.708;7.134;2023-05-07T13:54:33;1.80;;;1.50;;
71091;SDS011;58751;50.708;7.134;2023-05-07T13:56:58;1.90;;;1.80;;
71091;SDS011;58751;50.708;7.134;2023-05-07T13:59:24;1.97;;;1.87;;
71091;SDS011;58751;50.708;7.134;2023-05-07T14:01:49;2.07;;;1.80;;
71091;SDS011;58751;50.708;7.134;2023-05-07T14:04:14;1.50;;;1.40;;
71091;SDS011;58751;50.708;7.134;2023-05-07T14:06:41;2.00;;;1.90;;
71091;SDS011;58751;50.708;7.134;2023-05-07T14:09:06;2.17;;;2.07;;
71091;SDS011;58751;50.708;7.134;2023-05-07T14:11:31;3.93;;;3.00;;
71091;SDS011;58751;50.708;7.134;2023-05-07T14:13:56;2.60;;;2.40;;
71091;SDS011;58751;50.708;7.134;2023-05-07T14:16:21;3.20;;;2.90;;
71091;SDS011;58751;50.708;7.134;2023-05-07T14:18:47;7.43;;;2.97;;
71091;SDS011;58751;50.708;7.134;2023-05-07T14:21:12;4.43;;;2.30;;
71091;SDS011;58751;50.708;7.134;2023-05-07T14:23:38;3.00;;;2.23;;
71091;SDS011;58751;50.708;7.134;2023-05-07T14:26:04;2.70;;;1.90;;
71091;SDS011;58751;50.708;7.134;2023-05-07T14:28:29;2.50;;;2.30;;
71091;SDS011;58751;50.708;7.134;2023-05-07T14:30:54;1.70;;;1.60;;
71091;SDS011;58751;50.708;7.134;2023-05-07T14:33:19;2.33;;;1.90;;
71091;SDS011;58751;50.708;7.134;2023-05-07T14:35:45;2.60;;;2.40;;
71091;SDS011;58751;50.708;7.134;2023-05-07T14:38:10;2.97;;;2.63;;
71091;SDS011;58751;50.708;7.134;2023-05-07T14:40:36;2.10;;;2.00;;
71091;SDS011;58751;50.708;7.134;2023-05-07T14:43:02;2.63;;;2.43;;
71091;SDS011;58751;50.708;7.134;2023-05-07T14:45:27;2.93;;;2.73;;